createdAt,value
2019-04-21T00:00:39.678Z,29.8
2019-04-21T00:10:39.767Z,41.2
2019-04-21T00:16:00.128Z,47.9
2019-04-21T00:20:30.816Z,45.7
2019-04-21T00:30:39.456Z,27.4
2019-04-21T00:36:30.639Z,40.7
2019-04-21T00:55:44.227Z,17.6
2019-04-21T01:05:35.063Z,35.7
2019-04-21T01:10:34.545Z,36
2019-04-21T01:15:52.658Z,22.6
2019-04-21T01:20:27.542Z,17.8
2019-04-21T01:26:29.531Z,30.1
2019-04-21T01:30:39.733Z,33.9
2019-04-21T01:35:53.519Z,19.2
2019-04-21T01:45:58.759Z,33
2019-04-21T02:05:43.772Z,18.8
2019-04-21T02:15:41.817Z,33.6
2019-04-21T02:20:44.232Z,27.6
2019-04-21T02:36:14.777Z,18
2019-04-21T02:41:05.570Z,17.4
2019-04-21T02:50:35.950Z,35.8
2019-04-21T02:55:43.370Z,34.8
2019-04-21T03:00:42.431Z,34.3
2019-04-21T03:05:50.302Z,19.3
2019-04-21T03:16:06.591Z,32.2
2019-04-21T03:21:06.942Z,31.5
2019-04-21T03:25:49.262Z,34.4
2019-04-21T03:31:17.867Z,28.4
2019-04-21T03:36:11.850Z,21.1
2019-04-21T03:40:57.038Z,29.5
2019-04-21T03:45:42.057Z,27.4
2019-04-21T03:50:38.630Z,28.8
2019-04-21T03:56:50.741Z,23.6
2019-04-21T04:01:15.385Z,31.3
2019-04-21T04:06:18.999Z,28.2
2019-04-21T04:11:11.226Z,22.2
2019-04-21T04:15:55.847Z,31.3
2019-04-21T04:20:50.942Z,28.4
2019-04-21T04:40:55.231Z,13
2019-04-21T04:51:22.677Z,28.8
2019-04-21T04:55:38.667Z,26.9
2019-04-21T05:05:46.579Z,28.5
2019-04-21T05:11:05.788Z,30.5
2019-04-21T05:15:41.382Z,26.2
2019-04-21T05:20:51.999Z,26.8
2019-04-21T05:25:41.401Z,22.5
2019-04-21T05:35:48.770Z,29.8
2019-04-21T05:41:06.184Z,26.4
2019-04-21T05:45:40.395Z,27.5
2019-04-21T05:50:53.518Z,13.3
2019-04-21T06:01:05.883Z,23.4
2019-04-21T06:10:47.155Z,13.4
2019-04-21T06:15:42.743Z,24
2019-04-21T07:01:30.644Z,14.7
2019-04-21T07:10:42.860Z,12.9
2019-04-21T07:15:55.270Z,11.9
2019-04-21T07:20:48.893Z,11.8
2019-04-21T07:25:57.780Z,3.4
2019-04-21T07:40:33.092Z,2
2019-04-21T07:45:44.311Z,3.3
2019-04-21T07:50:46.215Z,10.4
2019-04-21T08:01:03.705Z,8.7
2019-04-21T08:10:37.626Z,8.3
2019-04-21T08:15:39.396Z,8.4
2019-04-21T08:20:34.459Z,7.2
2019-04-21T08:25:45.529Z,9
2019-04-21T09:10:39.012Z,7
2019-04-21T11:05:18.771Z,6.8
2019-04-21T11:10:18.263Z,7.1
2019-04-21T11:15:17.536Z,5.8
2019-04-21T11:20:28.541Z,8.8
2019-04-21T11:25:24.250Z,1
2019-04-21T11:30:23.291Z,2
2019-04-21T11:35:23.077Z,1
2019-04-21T11:40:27.712Z,0.9
2019-04-21T11:46:08.551Z,1.6
2019-04-21T11:50:18.777Z,3.7
2019-04-21T12:10:23.750Z,2.9
2019-04-21T12:20:20.873Z,1.5
2019-04-21T12:25:36.814Z,6.2
2019-04-21T12:30:27.220Z,2.3
2019-04-21T12:40:24.375Z,1.2
2019-04-21T12:45:35.902Z,2.1
2019-04-21T12:50:35.992Z,1.8
2019-04-21T13:05:27.556Z,6.8
2019-04-21T14:00:40.062Z,0.5
2019-04-21T14:05:18.118Z,1.3
2019-04-21T14:10:17.884Z,1.5
2019-04-21T14:15:18.052Z,0.6
2019-04-21T14:20:17.304Z,1.9
2019-04-21T14:25:17.605Z,2.1
2019-04-21T14:30:23.367Z,1
2019-04-21T14:35:22.864Z,1.8
2019-04-21T14:40:29.238Z,0.8
2019-04-21T14:50:19.756Z,0.7
2019-04-21T15:00:18.951Z,1.2
2019-04-21T15:05:23.039Z,0.8
2019-04-21T15:15:23.459Z,1.4
2019-04-21T15:25:16.618Z,1
2019-04-21T15:30:18.334Z,0.4
2019-04-21T15:35:19.141Z,0.3
2019-04-21T15:45:22.174Z,2.1
2019-04-21T15:50:23.436Z,1
2019-04-21T15:55:22.923Z,0.7
2019-04-21T16:00:16.843Z,1.3
2019-04-21T16:05:18.800Z,1.1
2019-04-21T16:10:30.765Z,2
2019-04-21T16:15:20.985Z,1.4
2019-04-21T16:20:17.623Z,2.8
2019-04-21T16:25:32.777Z,1.5
2019-04-21T16:30:23.783Z,1.1
2019-04-21T16:35:20.527Z,1.2
2019-04-21T16:40:17.397Z,1.8
2019-04-21T16:45:22.986Z,1.1
2019-04-21T16:50:17.432Z,1.2
2019-04-21T16:55:19.107Z,3.9
2019-04-21T17:00:31.051Z,1.6
2019-04-21T17:05:18.279Z,2.6
2019-04-21T17:10:28.742Z,2.2
2019-04-21T17:15:28.114Z,2
2019-04-21T17:20:30.840Z,2.8
2019-04-21T17:25:28.217Z,3.4
2019-04-21T17:30:40.690Z,4.4
2019-04-21T17:35:22.771Z,2.2
2019-04-21T17:40:17.651Z,4.4
2019-04-21T17:45:32.996Z,2
2019-04-21T17:50:23.360Z,1
2019-04-21T17:55:28.148Z,3
2019-04-21T18:00:57.078Z,5.5
2019-04-21T18:05:37.134Z,2.3
2019-04-21T18:10:38.860Z,8
2019-04-21T18:15:39.951Z,3.5
2019-04-21T18:20:17.450Z,4.7
2019-04-21T18:25:27.870Z,2.6
2019-04-21T18:30:18.171Z,9.3
2019-04-21T18:35:17.676Z,12.1
2019-04-21T18:40:25.061Z,1.1
2019-04-21T18:45:47.745Z,7.7
2019-04-21T18:50:18.486Z,6.8
2019-04-21T18:55:24.891Z,7.5
2019-04-21T19:00:26.098Z,8
2019-04-21T19:05:20.861Z,6.1
2019-04-21T19:10:35.178Z,5.9
2019-04-21T19:15:39.709Z,3.4
2019-04-21T19:20:29.265Z,6.2
2019-04-21T19:25:31.157Z,6.1
2019-04-21T19:30:39.715Z,5.7
2019-04-21T19:35:17.309Z,6.8
2019-04-21T19:40:32.602Z,6.6
2019-04-21T19:45:31.539Z,8.6
2019-04-21T19:50:44.780Z,8.6
2019-04-21T19:55:18.099Z,7.5
2019-04-21T20:00:17.795Z,10.2
2019-04-21T20:05:25.404Z,7.6
2019-04-21T20:10:32.600Z,9
2019-04-21T20:15:41.241Z,7.3
2019-04-21T20:20:17.146Z,9.8
2019-04-21T20:25:19.891Z,6.8
2019-04-21T20:30:37.475Z,6.6
2019-04-21T20:35:51.571Z,2.5
2019-04-21T20:40:24.673Z,6.1
2019-04-21T20:45:45.386Z,10.7
2019-04-21T20:50:29.715Z,8.3
2019-04-21T20:55:26.351Z,3.3
2019-04-21T21:00:36.850Z,7.6
2019-04-21T21:05:25.808Z,6.1
2019-04-21T21:10:32.706Z,6
2019-04-21T21:15:29.007Z,5.7
2019-04-21T21:20:35.062Z,2.4
2019-04-21T21:25:39.557Z,6.5
2019-04-21T21:30:25.890Z,2.6
2019-04-21T21:35:29.398Z,5.9
2019-04-21T21:40:29.838Z,4.3
2019-04-21T21:45:19.787Z,6.1
2019-04-21T21:50:24.992Z,5.2
2019-04-21T21:55:17.104Z,2.1
2019-04-21T22:00:17.492Z,4.8
2019-04-21T22:05:21.977Z,5.2
2019-04-21T22:10:17.948Z,2.9
2019-04-21T22:15:22.287Z,5.1
2019-04-21T22:20:32.864Z,1.5
2019-04-21T22:25:24.173Z,5.1
2019-04-21T22:30:24.576Z,6.6
2019-04-21T22:35:27.050Z,6.4
2019-04-21T22:40:25.736Z,5
2019-04-21T22:45:17.765Z,5.7
2019-04-21T22:50:16.775Z,2
2019-04-21T22:55:20.743Z,5.1
2019-04-21T23:00:22.240Z,6.8
2019-04-21T23:05:22.052Z,2.5
2019-04-21T23:10:17.343Z,6.4
2019-04-21T23:15:19.391Z,7.5
2019-04-21T23:20:31.374Z,5.8
2019-04-21T23:25:30.372Z,8.1
2019-04-21T23:30:37.466Z,5.8
2019-04-21T23:35:19.387Z,4.8
2019-04-21T23:40:20.169Z,7
2019-04-21T23:45:24.847Z,5.2
2019-04-21T23:50:24.620Z,6.3
2019-04-21T23:55:17.028Z,5.6
